createdAt,value
2018-01-17T00:00:09.818Z,8.50
2018-01-17T00:02:37.942Z,8.40
2018-01-17T00:05:06.103Z,8.80
2018-01-17T00:07:34.230Z,8.38
2018-01-17T00:10:02.373Z,9.07
2018-01-17T00:12:30.502Z,8.43
2018-01-17T00:14:58.674Z,6.05
2018-01-17T00:17:26.797Z,8.50
2018-01-17T00:19:54.947Z,6.10
2018-01-17T00:22:23.068Z,6.55
2018-01-17T00:24:51.218Z,8.10
2018-01-17T00:27:19.348Z,5.87
2018-01-17T00:29:47.498Z,7.62
2018-01-17T00:32:15.631Z,6.60
2018-01-17T00:34:43.777Z,7.68
2018-01-17T00:37:11.904Z,6.22
2018-01-17T00:39:40.052Z,6.75
2018-01-17T00:42:08.179Z,7.32
2018-01-17T00:44:36.320Z,7.65
2018-01-17T00:47:04.457Z,7.43
2018-01-17T00:49:32.610Z,6.97
2018-01-17T00:52:00.725Z,6.30
2018-01-17T00:54:28.896Z,7.25
2018-01-17T00:56:57.016Z,7.97
2018-01-17T00:59:25.148Z,8.07
2018-01-17T01:01:53.304Z,8.50
2018-01-17T01:04:21.427Z,8.65
2018-01-17T01:06:49.586Z,8.30
2018-01-17T01:09:17.750Z,9.07
2018-01-17T01:11:45.906Z,9.00
2018-01-17T01:14:14.035Z,9.38
2018-01-17T01:16:42.181Z,8.73
2018-01-17T01:19:10.305Z,8.25
2018-01-17T01:21:38.466Z,8.77
2018-01-17T01:24:07.366Z,9.13
2018-01-17T01:26:35.517Z,10.23
2018-01-17T01:29:03.671Z,10.00
2018-01-17T01:31:31.825Z,10.13
2018-01-17T01:33:59.958Z,9.02
2018-01-17T01:36:28.128Z,9.32
2018-01-17T01:38:57.017Z,8.98
2018-01-17T01:41:25.172Z,7.85
2018-01-17T01:43:53.305Z,7.50
2018-01-17T01:46:21.457Z,9.80
2018-01-17T01:49:01.242Z,9.50
2018-01-17T01:51:29.393Z,7.68
2018-01-17T01:53:58.288Z,6.30
2018-01-17T01:56:26.438Z,8.55
2018-01-17T01:58:54.568Z,7.75
2018-01-17T02:01:22.733Z,7.60
2018-01-17T02:03:50.862Z,8.30
2018-01-17T02:06:19.013Z,8.23
2018-01-17T02:08:47.141Z,8.93
2018-01-17T02:11:15.294Z,7.25
2018-01-17T02:13:43.432Z,7.37
2018-01-17T02:16:11.589Z,8.88
2018-01-17T02:18:39.714Z,8.45
2018-01-17T02:21:07.870Z,8.90
2018-01-17T02:23:35.993Z,8.13
2018-01-17T02:26:04.149Z,9.15
2018-01-17T02:28:32.278Z,9.35
2018-01-17T02:31:00.438Z,7.25
2018-01-17T02:33:29.334Z,9.82
2018-01-17T02:35:57.477Z,7.55
2018-01-17T02:38:25.596Z,7.50
2018-01-17T02:40:53.746Z,8.15
2018-01-17T02:43:21.871Z,7.43
2018-01-17T02:45:50.025Z,6.95
2018-01-17T02:48:18.157Z,7.75
2018-01-17T02:50:47.078Z,7.50
2018-01-17T02:53:15.201Z,7.53
2018-01-17T02:55:43.354Z,7.12
2018-01-17T02:58:11.489Z,7.50
2018-01-17T03:00:39.632Z,7.97
2018-01-17T03:03:07.760Z,7.97
2018-01-17T03:05:35.914Z,7.45
2018-01-17T03:08:04.034Z,7.22
2018-01-17T03:10:32.189Z,7.95
2018-01-17T03:13:00.318Z,7.95
2018-01-17T03:15:28.470Z,6.62
2018-01-17T03:17:56.595Z,7.20
2018-01-17T03:20:24.727Z,7.62
2018-01-17T03:22:52.891Z,6.90
2018-01-17T03:25:21.013Z,7.43
2018-01-17T03:27:49.163Z,7.47
2018-01-17T03:30:17.293Z,7.78
2018-01-17T03:32:45.441Z,8.77
2018-01-17T03:35:13.570Z,7.60
2018-01-17T03:37:41.717Z,8.77
2018-01-17T03:40:09.838Z,8.00
2018-01-17T03:42:37.986Z,7.60
2018-01-17T03:45:06.109Z,7.97
2018-01-17T03:47:34.262Z,8.30
2018-01-17T03:50:02.382Z,7.30
2018-01-17T03:52:30.563Z,7.50
2018-01-17T03:54:58.681Z,7.93
2018-01-17T03:57:26.828Z,8.40
2018-01-17T03:59:54.953Z,8.60
2018-01-17T04:02:23.109Z,7.97
2018-01-17T04:04:51.239Z,7.93
2018-01-17T04:07:19.388Z,7.10
2018-01-17T04:09:47.545Z,6.93
2018-01-17T04:12:15.693Z,6.90
2018-01-17T04:14:43.846Z,7.43
2018-01-17T04:17:11.991Z,6.87
2018-01-17T04:19:40.112Z,6.97
2018-01-17T04:22:08.275Z,6.82
2018-01-17T04:24:36.448Z,6.70
2018-01-17T04:27:04.572Z,6.60
2018-01-17T04:29:32.717Z,7.25
2018-01-17T04:32:00.868Z,6.75
2018-01-17T04:34:29.053Z,6.70
2018-01-17T04:36:57.209Z,7.60
2018-01-17T04:39:25.330Z,7.05
2018-01-17T04:41:53.485Z,6.53
2018-01-17T04:44:21.605Z,5.93
2018-01-17T04:46:49.761Z,8.35
2018-01-17T04:49:17.881Z,5.70
2018-01-17T04:51:46.037Z,7.90
2018-01-17T04:54:14.165Z,7.07
2018-01-17T04:56:42.315Z,7.75
2018-01-17T04:59:10.445Z,6.85
2018-01-17T05:01:38.615Z,8.05
2018-01-17T05:04:07.509Z,7.15
2018-01-17T05:06:35.653Z,6.75
2018-01-17T05:09:03.780Z,7.68
2018-01-17T05:11:31.937Z,7.68
2018-01-17T05:14:00.061Z,7.20
2018-01-17T05:16:28.217Z,8.27
2018-01-17T05:18:56.343Z,11.98
2018-01-17T05:21:25.266Z,7.43
2018-01-17T05:23:53.395Z,8.82
2018-01-17T05:26:22.320Z,8.60
2018-01-17T05:28:50.440Z,8.65
2018-01-17T05:31:18.586Z,7.65
2018-01-17T05:33:46.718Z,10.27
2018-01-17T05:36:15.636Z,9.43
2018-01-17T05:38:43.797Z,8.07
2018-01-17T05:41:11.962Z,7.60
2018-01-17T05:43:40.845Z,8.63
2018-01-17T05:46:08.977Z,8.85
2018-01-17T05:48:37.124Z,9.27
2018-01-17T05:51:05.258Z,8.52
2018-01-17T05:53:34.195Z,10.48
2018-01-17T05:56:02.328Z,9.20
2018-01-17T05:58:31.247Z,9.05
2018-01-17T06:00:59.376Z,11.35
2018-01-17T06:03:28.302Z,8.20
2018-01-17T06:05:56.429Z,9.43
2018-01-17T06:08:24.581Z,9.88
2018-01-17T06:10:52.704Z,9.95
2018-01-17T06:13:20.869Z,10.63
2018-01-17T06:15:48.997Z,11.27
2018-01-17T06:18:17.158Z,10.68
2018-01-17T06:20:45.286Z,11.10
2018-01-17T06:23:13.437Z,9.93
2018-01-17T06:25:41.573Z,10.13
2018-01-17T06:28:09.724Z,9.48
2018-01-17T06:30:37.853Z,9.82
2018-01-17T06:33:06.008Z,10.02
2018-01-17T06:35:34.211Z,9.73
2018-01-17T06:38:02.352Z,9.93
2018-01-17T06:40:30.476Z,11.25
2018-01-17T06:42:58.646Z,11.50
2018-01-17T06:45:26.790Z,9.82
2018-01-17T06:47:54.948Z,10.07
2018-01-17T06:50:23.081Z,10.15
2018-01-17T06:52:51.262Z,11.75
2018-01-17T06:55:19.391Z,11.77
2018-01-17T06:57:47.553Z,10.63
2018-01-17T07:00:15.697Z,10.25
2018-01-17T07:02:43.859Z,11.15
2018-01-17T07:05:11.989Z,10.25
2018-01-17T07:07:40.149Z,11.63
2018-01-17T07:10:08.281Z,10.30
2018-01-17T07:12:36.441Z,12.65
2018-01-17T07:15:04.582Z,10.70
2018-01-17T07:17:33.512Z,11.73
2018-01-17T07:20:01.650Z,11.35
2018-01-17T07:22:30.574Z,12.13
2018-01-17T07:24:58.701Z,12.50
2018-01-17T07:27:26.858Z,12.68
2018-01-17T07:29:54.993Z,11.68
2018-01-17T07:32:23.168Z,12.65
2018-01-17T07:34:51.298Z,11.68
2018-01-17T07:37:19.457Z,12.45
2018-01-17T07:39:47.593Z,13.00
2018-01-17T07:42:15.749Z,12.27
2018-01-17T07:44:43.880Z,14.93
2018-01-17T07:47:12.037Z,12.82
2018-01-17T07:49:40.177Z,13.98
2018-01-17T07:52:08.358Z,14.35
2018-01-17T07:54:36.481Z,15.10
2018-01-17T07:57:05.430Z,14.40
2018-01-17T07:59:33.589Z,12.85
2018-01-17T08:02:01.741Z,11.82
2018-01-17T08:04:29.870Z,14.32
2018-01-17T08:06:58.037Z,14.63
2018-01-17T08:09:26.169Z,13.52
2018-01-17T08:11:54.301Z,13.13
2018-01-17T08:14:22.470Z,11.75
2018-01-17T08:16:50.601Z,11.80
2018-01-17T08:19:18.762Z,13.65
2018-01-17T08:21:46.897Z,13.52
2018-01-17T08:24:15.057Z,13.68
2018-01-17T08:26:43.191Z,13.55
2018-01-17T08:29:11.344Z,12.60
2018-01-17T08:31:39.482Z,11.73
2018-01-17T08:34:07.639Z,12.15
2018-01-17T08:36:35.766Z,13.45
2018-01-17T08:39:03.921Z,12.82
2018-01-17T08:41:32.821Z,11.50
2018-01-17T08:44:00.986Z,11.00
2018-01-17T08:46:29.888Z,12.85
2018-01-17T08:48:58.049Z,12.85
2018-01-17T08:51:26.941Z,12.73
2018-01-17T08:53:55.096Z,12.40
2018-01-17T08:56:23.238Z,12.35
2018-01-17T08:58:51.394Z,11.40
2018-01-17T09:01:19.530Z,11.15
2018-01-17T09:03:47.688Z,10.10
2018-01-17T09:06:15.822Z,10.30
2018-01-17T09:08:43.978Z,10.30
2018-01-17T09:11:12.118Z,10.27
2018-01-17T09:13:40.271Z,10.55
2018-01-17T09:16:08.397Z,9.55
2018-01-17T09:18:36.561Z,9.80
2018-01-17T09:21:04.685Z,9.57
2018-01-17T09:23:32.833Z,9.23
2018-01-17T09:26:00.969Z,10.85
2018-01-17T09:28:29.898Z,9.65
2018-01-17T09:30:58.789Z,9.88
2018-01-17T09:33:26.975Z,13.02
2018-01-17T09:35:55.110Z,8.95
2018-01-17T09:38:23.302Z,10.32
2018-01-17T09:40:51.421Z,11.12
2018-01-17T09:43:19.582Z,9.90
2018-01-17T09:45:47.710Z,8.40
2018-01-17T09:48:15.871Z,10.77
2018-01-17T09:50:43.992Z,10.90
2018-01-17T09:53:12.145Z,10.70
2018-01-17T09:55:40.281Z,9.73
2018-01-17T09:58:09.209Z,10.82
2018-01-17T10:00:37.338Z,12.07
2018-01-17T10:03:06.307Z,8.80
2018-01-17T10:05:34.442Z,11.45
2018-01-17T10:08:02.593Z,10.55
2018-01-17T10:10:30.733Z,8.77
2018-01-17T10:12:58.908Z,11.63
2018-01-17T10:15:27.041Z,9.07
2018-01-17T10:17:55.200Z,8.68
2018-01-17T10:20:23.328Z,10.73
2018-01-17T10:22:51.496Z,9.10
2018-01-17T10:25:19.624Z,12.43
2018-01-17T10:27:47.757Z,10.40
2018-01-17T10:30:15.913Z,10.82
2018-01-17T10:32:44.043Z,9.80
2018-01-17T10:35:12.208Z,10.52
2018-01-17T10:37:40.342Z,9.50
2018-01-17T10:40:08.489Z,9.90
2018-01-17T10:42:36.622Z,11.27
2018-01-17T10:45:04.784Z,10.98
2018-01-17T10:47:32.913Z,10.07
2018-01-17T10:50:01.074Z,10.30
2018-01-17T10:52:29.204Z,10.57
2018-01-17T10:54:57.362Z,9.75
2018-01-17T10:57:26.254Z,9.93
2018-01-17T10:59:54.431Z,9.25
2018-01-17T11:02:23.322Z,9.48
2018-01-17T11:04:51.476Z,11.05
2018-01-17T11:07:20.372Z,9.45
2018-01-17T11:09:48.524Z,10.07
2018-01-17T11:12:16.657Z,8.82
2018-01-17T11:14:44.821Z,8.75
2018-01-17T11:17:12.950Z,8.75
2018-01-17T11:19:41.112Z,8.98
2018-01-17T11:22:09.241Z,9.95
2018-01-17T11:24:37.433Z,9.88
2018-01-17T11:27:05.570Z,11.27
2018-01-17T11:29:33.731Z,9.95
2018-01-17T11:32:02.629Z,10.85
2018-01-17T11:34:30.785Z,10.15
2018-01-17T11:36:58.927Z,9.85
2018-01-17T11:39:27.081Z,9.52
2018-01-17T11:41:55.207Z,11.20
2018-01-17T11:44:23.374Z,10.27
2018-01-17T11:46:51.601Z,9.52
2018-01-17T11:49:19.762Z,9.40
2018-01-17T11:51:47.888Z,8.75
2018-01-17T11:54:16.037Z,9.25
2018-01-17T11:56:44.166Z,8.32
2018-01-17T11:59:12.320Z,9.30
2018-01-17T12:01:40.449Z,10.20
2018-01-17T12:04:08.601Z,8.60
2018-01-17T12:06:36.729Z,9.25
2018-01-17T12:09:04.876Z,8.13
2018-01-17T12:11:32.999Z,8.13
2018-01-17T12:14:01.148Z,7.00
2018-01-17T12:16:29.268Z,6.80
2018-01-17T12:18:57.420Z,6.72
2018-01-17T12:21:25.550Z,6.57
2018-01-17T12:23:53.738Z,7.55
2018-01-17T12:26:21.862Z,6.28
2018-01-17T12:28:49.993Z,7.00
2018-01-17T12:31:18.150Z,7.97
2018-01-17T12:33:46.274Z,6.03
2018-01-17T12:36:14.423Z,5.12
2018-01-17T12:38:43.309Z,5.03
2018-01-17T12:41:11.476Z,5.07
2018-01-17T12:43:39.601Z,5.50
2018-01-17T12:46:07.770Z,4.97
2018-01-17T12:48:35.898Z,5.03
2018-01-17T12:51:04.056Z,4.22
2018-01-17T12:53:32.167Z,3.33
2018-01-17T12:56:00.316Z,4.62
2018-01-17T12:58:28.442Z,3.90
2018-01-17T13:00:56.619Z,4.80
2018-01-17T13:03:24.737Z,4.10
2018-01-17T13:05:53.652Z,3.47
2018-01-17T13:08:21.781Z,4.82
2018-01-17T13:10:49.943Z,3.45
2018-01-17T13:13:18.071Z,3.53
2018-01-17T13:15:46.223Z,2.85
2018-01-17T13:18:14.340Z,3.37
2018-01-17T13:20:42.495Z,4.07
2018-01-17T13:23:10.614Z,3.08
2018-01-17T13:25:38.770Z,3.45
2018-01-17T13:28:06.890Z,3.35
2018-01-17T13:30:35.809Z,2.97
2018-01-17T13:33:03.939Z,3.35
2018-01-17T13:35:32.090Z,3.50
2018-01-17T13:38:00.218Z,4.80
2018-01-17T13:40:28.369Z,3.58
2018-01-17T13:42:56.500Z,3.00
2018-01-17T13:45:24.652Z,3.12
2018-01-17T13:47:52.787Z,3.95
2018-01-17T13:50:21.706Z,3.78
2018-01-17T13:52:49.833Z,3.95
2018-01-17T13:55:17.990Z,3.45
2018-01-17T13:57:46.109Z,2.90
2018-01-17T14:00:14.261Z,4.40
2018-01-17T14:02:42.393Z,3.22
2018-01-17T14:05:10.542Z,3.83
2018-01-17T14:07:38.665Z,4.18
2018-01-17T14:10:06.837Z,3.80
2018-01-17T14:12:34.980Z,4.90
2018-01-17T14:15:03.136Z,4.85
2018-01-17T14:17:31.290Z,4.50
2018-01-17T14:19:59.441Z,3.50
2018-01-17T14:22:27.608Z,4.70
2018-01-17T14:24:55.756Z,4.65
2018-01-17T14:27:23.877Z,4.25
2018-01-17T14:29:52.027Z,3.67
2018-01-17T14:32:20.153Z,4.35
2018-01-17T14:34:48.407Z,4.10
2018-01-17T14:37:16.600Z,3.78
2018-01-17T14:39:44.753Z,3.30
2018-01-17T14:42:12.911Z,3.72
2018-01-17T14:44:41.028Z,3.08
2018-01-17T14:47:09.188Z,3.35
2018-01-17T14:49:37.653Z,3.75
2018-01-17T14:52:05.825Z,3.80
2018-01-17T14:54:33.961Z,3.30
2018-01-17T14:57:02.140Z,3.15
2018-01-17T14:59:31.054Z,3.00
2018-01-17T15:01:59.389Z,3.37
2018-01-17T15:04:27.542Z,2.90
2018-01-17T15:06:55.689Z,3.25
2018-01-17T15:09:23.820Z,3.30
2018-01-17T15:11:51.973Z,3.47
2018-01-17T15:14:20.101Z,3.55
2018-01-17T15:16:48.390Z,3.60
2018-01-17T15:19:16.522Z,3.60
2018-01-17T15:21:44.681Z,3.30
2018-01-17T15:24:12.805Z,2.97
2018-01-17T15:26:40.961Z,3.80
2018-01-17T15:29:09.847Z,3.90
2018-01-17T15:31:38.776Z,3.30
2018-01-17T15:34:06.905Z,2.47
2018-01-17T15:36:35.834Z,3.00
2018-01-17T15:39:03.996Z,2.62
2018-01-17T15:41:33.888Z,2.50
2018-01-17T15:44:03.182Z,1.95
2018-01-17T15:46:32.180Z,1.67
2018-01-17T15:49:01.107Z,1.98
2018-01-17T15:51:29.296Z,1.77
2018-01-17T15:53:57.460Z,1.27
2018-01-17T15:56:25.625Z,1.62
2018-01-17T15:58:54.529Z,1.12
2018-01-17T16:01:22.741Z,0.80
2018-01-17T16:03:51.648Z,1.30
2018-01-17T16:06:19.811Z,1.30
2018-01-17T16:08:48.700Z,1.20
2018-01-17T16:11:16.853Z,1.10
2018-01-17T16:13:44.998Z,1.33
2018-01-17T16:16:13.156Z,1.60
2018-01-17T16:18:41.272Z,1.42
2018-01-17T16:21:09.431Z,1.75
2018-01-17T16:23:37.550Z,6.82
2018-01-17T16:26:06.476Z,1.50
2018-01-17T16:28:34.627Z,1.58
2018-01-17T16:31:02.789Z,5.80
2018-01-17T16:33:30.955Z,3.05
2018-01-17T16:35:59.108Z,2.33
2018-01-17T16:38:27.238Z,2.22
2018-01-17T16:40:55.382Z,1.83
2018-01-17T16:43:23.502Z,2.30
2018-01-17T16:45:51.787Z,2.72
2018-01-17T16:48:19.915Z,1.90
2018-01-17T16:50:48.066Z,2.80
2018-01-17T16:53:16.977Z,2.90
2018-01-17T16:55:45.125Z,2.47
2018-01-17T16:58:13.258Z,2.65
2018-01-17T17:00:41.437Z,2.45
2018-01-17T17:03:09.590Z,3.08
2018-01-17T17:05:37.745Z,2.65
2018-01-17T17:08:05.913Z,3.72
2018-01-17T17:10:34.797Z,3.20
2018-01-17T17:13:03.713Z,3.20
2018-01-17T17:15:31.831Z,2.78
2018-01-17T17:17:59.978Z,2.78
2018-01-17T17:20:28.114Z,3.53
2018-01-17T17:22:57.053Z,4.60
2018-01-17T17:25:25.249Z,4.32
2018-01-17T17:27:53.453Z,4.70
2018-01-17T17:30:21.689Z,4.80
2018-01-17T17:32:50.054Z,4.82
2018-01-17T17:35:18.662Z,5.03
2018-01-17T17:37:47.348Z,5.10
2018-01-17T17:40:15.890Z,4.85
2018-01-17T17:42:44.109Z,5.50
2018-01-17T17:45:12.240Z,6.53
2018-01-17T17:47:40.500Z,5.05
2018-01-17T17:50:08.666Z,5.05
2018-01-17T17:52:36.852Z,4.95
2018-01-17T17:55:04.987Z,5.90
2018-01-17T17:57:34.057Z,5.95
2018-01-17T18:00:02.771Z,5.28
2018-01-17T18:02:31.419Z,4.68
2018-01-17T18:04:59.877Z,5.55
2018-01-17T18:07:28.057Z,6.53
2018-01-17T18:09:56.193Z,6.10
2018-01-17T18:12:24.364Z,5.32
2018-01-17T18:14:53.319Z,5.87
2018-01-17T18:17:21.549Z,5.82
2018-01-17T18:19:49.705Z,5.95
2018-01-17T18:22:17.917Z,5.45
2018-01-17T18:24:46.104Z,6.10
2018-01-17T18:27:14.716Z,5.78
2018-01-17T18:29:43.746Z,6.03
2018-01-17T18:32:12.326Z,6.70
2018-01-17T18:34:40.613Z,5.87
2018-01-17T18:37:09.342Z,5.30
2018-01-17T18:39:37.972Z,6.32
2018-01-17T18:42:06.518Z,6.25
2018-01-17T18:44:34.905Z,5.85
2018-01-17T18:47:03.195Z,7.05
2018-01-17T18:49:32.159Z,6.00
2018-01-17T18:52:00.317Z,6.30
2018-01-17T18:54:28.519Z,6.97
2018-01-17T18:56:56.672Z,5.90
2018-01-17T18:59:24.926Z,5.15
2018-01-17T19:01:53.206Z,5.40
2018-01-17T19:04:22.010Z,6.62
2018-01-17T19:06:50.315Z,5.55
2018-01-17T19:09:18.475Z,5.50
2018-01-17T19:11:47.458Z,6.22
2018-01-17T19:14:16.350Z,4.82
2018-01-17T19:16:45.690Z,5.65
2018-01-17T19:19:13.827Z,6.78
2018-01-17T19:21:42.406Z,7.55
2018-01-17T19:24:11.342Z,7.40
2018-01-17T19:26:39.556Z,7.93
2018-01-17T19:29:07.767Z,7.75
2018-01-17T19:31:36.903Z,7.40
2018-01-17T19:34:05.154Z,7.45
2018-01-17T19:36:33.349Z,7.90
2018-01-17T19:39:01.488Z,7.95
2018-01-17T19:41:29.678Z,7.05
2018-01-17T19:43:57.811Z,6.30
2018-01-17T19:46:27.684Z,6.55
2018-01-17T19:48:55.912Z,6.80
2018-01-17T19:51:24.049Z,5.93
2018-01-17T19:53:52.226Z,6.62
2018-01-17T19:56:20.409Z,6.57
2018-01-17T19:58:48.595Z,5.35
2018-01-17T20:01:16.762Z,6.12
2018-01-17T20:03:44.935Z,6.50
2018-01-17T20:06:13.927Z,7.60
2018-01-17T20:08:42.086Z,7.12
2018-01-17T20:11:11.121Z,6.65
2018-01-17T20:13:40.050Z,6.90
2018-01-17T20:16:08.186Z,6.57
2018-01-17T20:18:37.139Z,6.47
2018-01-17T20:21:05.290Z,5.65
2018-01-17T20:23:33.445Z,5.90
2018-01-17T20:26:01.578Z,6.28
2018-01-17T20:28:29.785Z,8.18
2018-01-17T20:30:57.938Z,7.62
2018-01-17T20:33:26.105Z,7.85
2018-01-17T20:35:54.757Z,6.70
2018-01-17T20:38:22.980Z,5.18
2018-01-17T20:40:51.974Z,6.43
2018-01-17T20:43:20.914Z,6.97
2018-01-17T20:45:49.077Z,9.27
2018-01-17T20:48:17.305Z,7.50
2018-01-17T20:50:45.468Z,6.35
2018-01-17T20:53:13.632Z,5.75
2018-01-17T20:55:41.771Z,7.20
2018-01-17T20:58:09.921Z,6.57
2018-01-17T21:00:38.057Z,6.55
2018-01-17T21:03:06.286Z,7.53
2018-01-17T21:05:34.500Z,7.07
2018-01-17T21:08:02.673Z,6.10
2018-01-17T21:10:30.812Z,6.90
2018-01-17T21:12:58.970Z,7.12
2018-01-17T21:15:27.865Z,6.28
2018-01-17T21:17:56.037Z,6.47
2018-01-17T21:20:24.234Z,6.32
2018-01-17T21:22:52.429Z,6.60
2018-01-17T21:25:20.572Z,6.07
2018-01-17T21:27:48.756Z,6.57
2018-01-17T21:30:16.901Z,5.18
2018-01-17T21:32:45.110Z,6.37
2018-01-17T21:35:13.238Z,7.03
2018-01-17T21:37:41.500Z,5.90
2018-01-17T21:40:09.650Z,5.18
2018-01-17T21:42:43.627Z,6.05
2018-01-17T21:45:17.508Z,5.53
2018-01-17T21:47:45.674Z,4.40
2018-01-17T21:50:13.805Z,6.30
2018-01-17T21:52:42.030Z,4.62
2018-01-17T21:55:10.184Z,4.95
2018-01-17T21:57:38.356Z,4.75
2018-01-17T22:00:06.542Z,5.72
2018-01-17T22:02:34.789Z,5.55
2018-01-17T22:05:02.916Z,4.80
2018-01-17T22:07:31.067Z,6.07
2018-01-17T22:09:59.201Z,5.57
2018-01-17T22:12:27.426Z,5.03
2018-01-17T22:14:55.553Z,5.22
2018-01-17T22:17:23.709Z,5.20
2018-01-17T22:19:51.830Z,4.15
2018-01-17T22:22:19.984Z,5.62
2018-01-17T22:24:48.107Z,5.50
2018-01-17T22:27:16.261Z,5.40
2018-01-17T22:29:44.386Z,5.40
2018-01-17T22:32:12.507Z,5.10
2018-01-17T22:34:40.663Z,6.20
2018-01-17T22:37:08.790Z,5.47
2018-01-17T22:39:36.943Z,4.78
2018-01-17T22:42:05.067Z,5.55
2018-01-17T22:44:33.258Z,4.53
2018-01-17T22:47:01.374Z,5.50
2018-01-17T22:49:29.520Z,4.78
2018-01-17T22:51:57.652Z,4.57
2018-01-17T22:54:25.810Z,6.22
2018-01-17T22:56:53.941Z,5.00
2018-01-17T22:59:22.084Z,5.05
2018-01-17T23:01:50.235Z,5.82
2018-01-17T23:04:18.380Z,5.80
2018-01-17T23:06:46.500Z,7.50
2018-01-17T23:09:14.661Z,5.37
2018-01-17T23:11:43.548Z,5.65
2018-01-17T23:14:11.707Z,6.00
2018-01-17T23:16:40.622Z,6.22
2018-01-17T23:19:08.778Z,6.55
2018-01-17T23:21:36.898Z,6.07
2018-01-17T23:24:05.049Z,5.43
2018-01-17T23:26:33.181Z,6.18
2018-01-17T23:29:01.335Z,6.22
2018-01-17T23:31:29.462Z,5.50
2018-01-17T23:33:58.377Z,5.70
2018-01-17T23:36:26.504Z,5.40
2018-01-17T23:38:54.658Z,5.70
2018-01-17T23:41:22.799Z,5.90
2018-01-17T23:43:50.944Z,5.85
2018-01-17T23:46:19.065Z,5.00
2018-01-17T23:48:47.213Z,5.40
2018-01-17T23:51:15.377Z,5.30
2018-01-17T23:53:43.525Z,5.50
2018-01-17T23:56:11.644Z,4.05
2018-01-17T23:58:39.803Z,5.43
